createdAt,value
2024-01-01T00:00:52.533Z,4.80
2024-01-01T00:03:25.348Z,4.80
2024-01-01T00:06:00.199Z,4.90
2024-01-01T00:08:34.488Z,4.90
2024-01-01T00:11:07.085Z,4.90
2024-01-01T00:13:39.805Z,4.90
2024-01-01T00:16:15.213Z,4.90
2024-01-01T00:18:48.686Z,4.90
2024-01-01T00:21:23.248Z,4.90
2024-01-01T00:23:55.872Z,4.90
2024-01-01T00:26:28.491Z,4.90
2024-01-01T00:29:07.122Z,4.90
2024-01-01T00:31:41.630Z,4.90
2024-01-01T00:34:15.483Z,4.90
2024-01-01T00:36:49.330Z,4.80
2024-01-01T00:39:22.950Z,4.80
2024-01-01T00:41:55.608Z,4.80
2024-01-01T00:44:28.807Z,4.70
2024-01-01T00:47:01.525Z,4.70
2024-01-01T00:49:34.426Z,4.70
2024-01-01T00:52:07.457Z,4.70
2024-01-01T00:54:39.942Z,4.60
2024-01-01T00:57:12.724Z,4.60
2024-01-01T00:59:45.374Z,4.60
2024-01-01T01:02:18.231Z,4.60
2024-01-01T01:05:03.029Z,4.60
2024-01-01T01:07:39.414Z,4.60
2024-01-01T01:10:12.126Z,4.60
2024-01-01T01:12:45.410Z,4.50
2024-01-01T01:15:17.633Z,4.50
2024-01-01T01:17:49.999Z,4.50
2024-01-01T01:20:22.361Z,4.50
2024-01-01T01:22:54.744Z,4.50
2024-01-01T01:25:27.076Z,4.60
2024-01-01T01:27:59.717Z,4.60
2024-01-01T01:30:34.275Z,4.60
2024-01-01T01:33:06.763Z,4.60
2024-01-01T01:35:39.000Z,4.60
2024-01-01T01:38:11.335Z,4.60
2024-01-01T01:40:43.646Z,4.70
2024-01-01T01:43:25.819Z,4.70
2024-01-01T01:45:59.530Z,4.70
2024-01-01T01:48:32.827Z,4.70
2024-01-01T01:51:06.309Z,4.70
2024-01-01T01:53:41.778Z,4.60
2024-01-01T01:56:16.166Z,4.60
2024-01-01T01:58:49.985Z,4.60
2024-01-01T02:01:22.787Z,4.50
2024-01-01T02:03:55.708Z,4.50
2024-01-01T02:06:30.971Z,4.40
2024-01-01T02:09:05.705Z,4.40
2024-01-01T02:11:38.373Z,4.40
2024-01-01T02:14:13.334Z,4.40
2024-01-01T02:16:46.520Z,4.40
2024-01-01T02:19:22.790Z,4.50
2024-01-01T02:21:58.109Z,4.50
2024-01-01T02:24:30.577Z,4.50
2024-01-01T02:27:04.000Z,4.60
2024-01-01T02:29:36.723Z,4.60
2024-01-01T02:32:09.116Z,4.80
2024-01-01T02:34:41.294Z,4.80
2024-01-01T02:37:13.573Z,4.90
2024-01-01T02:39:46.025Z,4.80
2024-01-01T02:42:18.326Z,4.80
2024-01-01T02:44:50.609Z,4.80
2024-01-01T02:47:23.076Z,4.90
2024-01-01T02:49:56.562Z,4.90
2024-01-01T02:52:29.006Z,5.00
2024-01-01T02:55:01.383Z,5.00
2024-01-01T02:57:33.737Z,5.10
2024-01-01T03:00:10.211Z,5.10
2024-01-01T03:02:43.959Z,5.10
2024-01-01T03:05:16.748Z,5.20
2024-01-01T03:07:49.934Z,5.10
2024-01-01T03:10:22.405Z,5.20
2024-01-01T03:12:54.541Z,5.10
2024-01-01T03:15:27.722Z,5.10
2024-01-01T03:18:00.309Z,5.10
2024-01-01T03:20:34.524Z,5.00
2024-01-01T03:23:06.801Z,5.10
2024-01-01T03:25:39.298Z,5.10
2024-01-01T03:28:11.785Z,5.10
2024-01-01T03:30:44.683Z,5.10
2024-01-01T03:33:17.126Z,5.10
2024-01-01T03:35:49.746Z,5.10
2024-01-01T03:38:21.945Z,5.10
2024-01-01T03:40:54.288Z,5.10
2024-01-01T03:43:26.958Z,5.10
2024-01-01T03:45:59.195Z,5.10
2024-01-01T03:48:31.559Z,5.20
2024-01-01T03:51:03.977Z,5.20
2024-01-01T03:53:36.650Z,5.20
2024-01-01T03:56:09.054Z,5.20
2024-01-01T03:58:41.427Z,5.20
2024-01-01T04:01:14.786Z,5.20
2024-01-01T04:03:47.449Z,5.30
2024-01-01T04:06:19.995Z,5.30
2024-01-01T04:08:52.327Z,5.30
2024-01-01T04:11:24.646Z,5.30
2024-01-01T04:13:59.944Z,5.20
2024-01-01T04:16:33.991Z,5.20
2024-01-01T04:19:08.189Z,5.20
2024-01-01T04:21:41.107Z,5.10
2024-01-01T04:24:13.281Z,5.10
2024-01-01T04:26:45.492Z,5.10
2024-01-01T04:29:17.884Z,5.10
2024-01-01T04:31:50.229Z,5.00
2024-01-01T04:34:22.493Z,5.00
2024-01-01T04:36:54.700Z,5.00
2024-01-01T04:39:27.034Z,4.90
2024-01-01T04:41:59.653Z,5.00
2024-01-01T04:44:31.961Z,4.90
2024-01-01T04:47:04.428Z,4.90
2024-01-01T04:49:36.720Z,4.90
2024-01-01T04:52:08.935Z,4.90
2024-01-01T04:54:41.241Z,4.80
2024-01-01T04:57:13.388Z,4.80
2024-01-01T04:59:45.698Z,4.70
2024-01-01T05:02:17.849Z,4.70
2024-01-01T05:04:50.161Z,4.60
2024-01-01T05:07:22.336Z,4.60
2024-01-01T05:09:54.515Z,4.50
2024-01-01T05:12:26.763Z,4.50
2024-01-01T05:15:00.933Z,4.50
2024-01-01T05:17:33.225Z,4.40
2024-01-01T05:20:06.362Z,4.50
2024-01-01T05:22:39.332Z,4.50
2024-01-01T05:25:13.202Z,4.70
2024-01-01T05:27:45.516Z,4.80
2024-01-01T05:30:18.189Z,4.90
2024-01-01T05:32:50.500Z,4.90
2024-01-01T05:35:22.720Z,4.90
2024-01-01T05:37:56.248Z,5.00
2024-01-01T05:40:28.814Z,5.00
2024-01-01T05:43:01.032Z,5.00
2024-01-01T05:45:33.193Z,5.00
2024-01-01T05:48:06.211Z,5.00
2024-01-01T05:50:38.925Z,5.10
2024-01-01T05:53:11.244Z,5.10
2024-01-01T05:55:43.800Z,5.10
2024-01-01T05:58:16.083Z,5.20
2024-01-01T06:00:48.556Z,5.20
2024-01-01T06:03:21.231Z,5.20
2024-01-01T06:05:55.431Z,5.30
2024-01-01T06:08:27.937Z,5.30
2024-01-01T06:11:00.901Z,5.40
2024-01-01T06:13:33.688Z,5.40
2024-01-01T06:16:06.955Z,5.40
2024-01-01T06:18:39.369Z,5.50
2024-01-01T06:21:11.590Z,5.50
2024-01-01T06:23:46.550Z,5.50
2024-01-01T06:26:18.904Z,5.60
2024-01-01T06:28:51.201Z,5.60
2024-01-01T06:31:23.430Z,5.60
2024-01-01T06:33:56.311Z,5.60
2024-01-01T06:36:28.795Z,5.60
2024-01-01T06:39:00.883Z,5.60
2024-01-01T06:41:33.120Z,5.50
2024-01-01T06:44:05.533Z,5.50
2024-01-01T06:46:37.831Z,5.40
2024-01-01T06:49:10.236Z,5.40
2024-01-01T06:51:42.452Z,5.40
2024-01-01T06:54:19.742Z,5.40
2024-01-01T06:56:52.675Z,5.30
2024-01-01T06:59:30.972Z,5.30
2024-01-01T07:02:03.328Z,5.30
2024-01-01T07:04:35.546Z,5.30
2024-01-01T07:07:07.749Z,5.30
2024-01-01T07:09:40.096Z,5.30
2024-01-01T07:12:20.383Z,5.30
2024-01-01T07:14:55.992Z,5.20
2024-01-01T07:17:28.559Z,5.20
2024-01-01T07:20:01.608Z,5.20
2024-01-01T07:22:36.636Z,5.10
2024-01-01T07:25:10.547Z,5.10
2024-01-01T07:27:43.574Z,5.10
2024-01-01T07:30:16.147Z,5.20
2024-01-01T07:32:48.645Z,5.20
2024-01-01T07:35:21.000Z,5.20
2024-01-01T07:37:53.737Z,5.20
2024-01-01T07:40:25.966Z,5.20
2024-01-01T07:42:58.281Z,5.30
2024-01-01T07:45:31.176Z,5.30
2024-01-01T07:48:04.536Z,5.30
2024-01-01T07:50:38.963Z,5.30
2024-01-01T07:53:11.497Z,5.30
2024-01-01T07:55:44.030Z,5.30
2024-01-01T07:58:16.202Z,5.30
2024-01-01T08:00:48.765Z,5.30
2024-01-01T08:03:22.479Z,5.40
2024-01-01T08:05:54.924Z,5.40
2024-01-01T08:08:27.297Z,5.40
2024-01-01T08:10:59.591Z,5.40
2024-01-01T08:13:32.642Z,5.50
2024-01-01T08:16:05.781Z,5.40
2024-01-01T08:18:38.292Z,5.40
2024-01-01T08:21:10.525Z,5.50
2024-01-01T08:23:43.519Z,5.50
2024-01-01T08:26:16.055Z,5.50
2024-01-01T08:28:52.876Z,5.50
2024-01-01T08:31:25.651Z,5.50
2024-01-01T08:33:57.951Z,5.50
2024-01-01T08:36:30.753Z,5.50
2024-01-01T08:39:03.144Z,5.60
2024-01-01T08:41:45.219Z,5.60
2024-01-01T08:44:17.867Z,5.60
2024-01-01T08:46:50.126Z,5.70
2024-01-01T08:49:22.972Z,5.70
2024-01-01T08:51:55.304Z,5.80
2024-01-01T08:54:27.525Z,5.80
2024-01-01T08:56:59.832Z,5.80
2024-01-01T08:59:32.160Z,5.90
2024-01-01T09:02:06.075Z,5.90
2024-01-01T09:04:40.119Z,6.00
2024-01-01T09:07:12.414Z,6.00
2024-01-01T09:09:45.870Z,6.10
2024-01-01T09:12:18.868Z,6.10
2024-01-01T09:14:52.243Z,6.10
2024-01-01T09:17:24.740Z,6.20
2024-01-01T09:19:57.649Z,6.20
2024-01-01T09:22:30.045Z,6.20
2024-01-01T09:25:02.434Z,6.20
2024-01-01T09:27:34.968Z,6.30
2024-01-01T09:30:08.704Z,6.30
2024-01-01T09:32:41.943Z,6.40
2024-01-01T09:35:14.301Z,6.40
2024-01-01T09:37:46.655Z,6.50
2024-01-01T09:40:31.810Z,6.60
2024-01-01T09:44:20.493Z,6.60
2024-01-01T09:47:33.385Z,6.60
2024-01-01T09:50:06.734Z,6.70
2024-01-01T09:52:40.492Z,6.70
2024-01-01T09:55:20.292Z,6.70
2024-01-01T09:57:52.734Z,6.80
2024-01-01T10:00:28.831Z,6.90
2024-01-01T10:03:12.302Z,7.00
2024-01-01T10:05:49.736Z,7.00
2024-01-01T10:08:28.276Z,7.10
2024-01-01T10:12:12.124Z,7.20
2024-01-01T10:14:48.487Z,7.20
2024-01-01T10:17:21.817Z,7.20
2024-01-01T10:20:04.687Z,7.20
2024-01-01T10:22:40.849Z,7.30
2024-01-01T10:25:15.045Z,7.30
2024-01-01T10:27:49.442Z,7.40
2024-01-01T10:30:21.823Z,7.30
2024-01-01T10:32:55.714Z,7.40
2024-01-01T10:35:31.267Z,7.50
2024-01-01T10:38:24.837Z,7.50
2024-01-01T10:40:59.538Z,7.50
2024-01-01T10:43:34.781Z,7.50
2024-01-01T10:46:07.464Z,7.60
2024-01-01T10:48:44.837Z,7.70
2024-01-01T10:51:45.105Z,7.70
2024-01-01T10:55:14.868Z,7.80
2024-01-01T10:58:27.223Z,7.90
2024-01-01T11:01:21.887Z,7.90
2024-01-01T11:03:55.301Z,7.80
2024-01-01T11:06:40.557Z,7.80
2024-01-01T11:09:21.003Z,7.80
2024-01-01T11:12:03.823Z,7.80
2024-01-01T11:14:43.548Z,7.80
2024-01-01T11:17:24.450Z,7.70
2024-01-01T11:19:58.632Z,7.70
2024-01-01T11:22:32.752Z,7.70
2024-01-01T11:25:29.882Z,7.70
2024-01-01T11:28:04.274Z,7.70
2024-01-01T11:30:40.787Z,7.80
2024-01-01T11:33:14.520Z,7.80
2024-01-01T11:35:49.358Z,7.80
2024-01-01T11:38:21.876Z,7.90
2024-01-01T11:40:58.076Z,7.90
2024-01-01T11:43:30.845Z,8.00
2024-01-01T11:46:05.107Z,8.00
2024-01-01T11:48:39.107Z,8.00
2024-01-01T11:51:15.138Z,8.00
2024-01-01T11:53:47.479Z,8.00
2024-01-01T11:56:19.918Z,7.90
2024-01-01T11:58:52.547Z,7.80
2024-01-01T12:01:25.234Z,7.80
2024-01-01T12:04:01.418Z,7.80
2024-01-01T12:06:37.724Z,7.70
2024-01-01T12:09:12.697Z,7.70
2024-01-01T12:11:45.801Z,7.70
2024-01-01T12:14:27.051Z,7.80
2024-01-01T12:16:59.671Z,7.80
2024-01-01T12:19:32.980Z,7.80
2024-01-01T12:22:05.473Z,7.90
2024-01-01T12:24:37.851Z,8.00
2024-01-01T12:27:10.512Z,8.10
2024-01-01T12:29:52.598Z,8.10
2024-01-01T12:32:29.097Z,8.10
2024-01-01T12:35:01.716Z,8.10
2024-01-01T12:37:36.199Z,8.10
2024-01-01T12:40:09.177Z,8.20
2024-01-01T12:42:42.490Z,8.20
2024-01-01T12:45:15.810Z,8.30
2024-01-01T12:47:48.526Z,8.30
2024-01-01T12:50:21.414Z,8.30
2024-01-01T12:52:54.764Z,8.30
2024-01-01T12:55:28.590Z,8.30
2024-01-01T12:58:01.856Z,8.30
2024-01-01T13:00:42.551Z,8.30
2024-01-01T13:03:21.168Z,8.30
2024-01-01T13:05:54.288Z,8.30
2024-01-01T13:08:26.995Z,8.30
2024-01-01T13:10:59.624Z,8.30
2024-01-01T13:13:34.346Z,8.20
2024-01-01T13:16:07.815Z,8.20
2024-01-01T13:18:41.223Z,8.20
2024-01-01T13:21:14.843Z,8.20
2024-01-01T13:23:47.507Z,8.20
2024-01-01T13:26:20.352Z,8.20
2024-01-01T13:28:53.959Z,8.20
2024-01-01T13:31:33.456Z,8.20
2024-01-01T13:34:06.189Z,8.20
2024-01-01T13:36:38.751Z,8.10
2024-01-01T13:39:11.332Z,8.10
2024-01-01T13:41:44.695Z,8.10
2024-01-01T13:44:18.491Z,8.10
2024-01-01T13:46:51.058Z,8.10
2024-01-01T13:49:23.571Z,8.10
2024-01-01T13:51:58.107Z,8.20
2024-01-01T13:54:30.819Z,8.20
2024-01-01T13:57:04.413Z,8.20
2024-01-01T13:59:38.236Z,8.10
2024-01-01T14:02:11.208Z,8.20
2024-01-01T14:04:44.252Z,8.10
2024-01-01T14:07:17.384Z,8.10
2024-01-01T14:09:50.051Z,8.10
2024-01-01T14:12:22.427Z,8.10
2024-01-01T14:14:55.024Z,8.10
2024-01-01T14:17:27.616Z,8.10
2024-01-01T14:20:00.217Z,8.10
2024-01-01T14:22:36.159Z,8.10
2024-01-01T14:25:08.864Z,8.10
2024-01-01T14:27:43.373Z,8.00
2024-01-01T14:30:17.283Z,8.00
2024-01-01T14:32:55.567Z,8.00
2024-01-01T14:35:30.165Z,8.00
2024-01-01T14:38:02.893Z,7.90
2024-01-01T14:40:35.867Z,7.90
2024-01-01T14:43:09.515Z,7.90
2024-01-01T14:45:42.743Z,7.90
2024-01-01T14:48:16.019Z,7.80
2024-01-01T14:50:49.789Z,7.80
2024-01-01T14:53:23.719Z,7.80
2024-01-01T14:55:57.038Z,7.80
2024-01-01T14:58:30.052Z,7.80
2024-01-01T15:01:03.592Z,7.70
2024-01-01T15:03:37.329Z,7.70
2024-01-01T15:06:10.485Z,7.70
2024-01-01T15:08:42.822Z,7.60
2024-01-01T15:11:15.402Z,7.60
2024-01-01T15:13:48.293Z,7.60
2024-01-01T15:16:21.759Z,7.60
2024-01-01T15:18:56.185Z,7.50
2024-01-01T15:21:33.748Z,7.50
2024-01-01T15:24:07.972Z,7.50
2024-01-01T15:26:40.390Z,7.40
2024-01-01T15:29:12.902Z,7.40
2024-01-01T15:31:45.248Z,7.40
2024-01-01T15:34:17.836Z,7.40
2024-01-01T15:36:51.026Z,7.40
2024-01-01T15:39:23.907Z,7.30
2024-01-01T15:41:56.135Z,7.30
2024-01-01T15:44:28.770Z,7.30
2024-01-01T15:47:01.515Z,7.20
2024-01-01T15:49:36.440Z,7.20
2024-01-01T15:52:11.247Z,7.20
2024-01-01T15:54:45.305Z,7.20
2024-01-01T15:57:17.748Z,7.20
2024-01-01T15:59:50.629Z,7.10
2024-01-01T16:02:23.071Z,7.10
2024-01-01T16:04:57.223Z,7.10
2024-01-01T16:07:31.546Z,7.00
2024-01-01T16:10:05.568Z,7.00
2024-01-01T16:12:39.446Z,7.00
2024-01-01T16:15:13.204Z,7.00
2024-01-01T16:17:45.742Z,7.00
2024-01-01T16:20:19.109Z,6.90
2024-01-01T16:22:51.594Z,6.90
2024-01-01T16:25:25.422Z,6.90
2024-01-01T16:27:57.870Z,6.90
2024-01-01T16:30:31.490Z,6.90
2024-01-01T16:33:04.774Z,6.90
2024-01-01T16:35:37.905Z,6.80
2024-01-01T16:38:10.485Z,6.80
2024-01-01T16:40:46.754Z,6.80
2024-01-01T16:43:19.266Z,6.80
2024-01-01T16:45:51.988Z,6.80
2024-01-01T16:48:25.687Z,6.80
2024-01-01T16:50:59.084Z,6.80
2024-01-01T16:53:31.849Z,6.80
2024-01-01T16:56:05.157Z,6.70
2024-01-01T16:58:39.547Z,6.80
2024-01-01T17:01:13.147Z,6.80
2024-01-01T17:03:46.635Z,6.80
2024-01-01T17:06:20.849Z,6.70
2024-01-01T17:08:55.420Z,6.70
2024-01-01T17:11:29.075Z,6.70
2024-01-01T17:14:04.718Z,6.70
2024-01-01T17:16:42.504Z,6.60
2024-01-01T17:19:15.700Z,6.60
2024-01-01T17:21:49.486Z,6.60
2024-01-01T17:24:22.363Z,6.60
2024-01-01T17:26:54.799Z,6.60
2024-01-01T17:29:28.226Z,6.50
2024-01-01T17:32:01.430Z,6.50
2024-01-01T17:34:35.958Z,6.50
2024-01-01T17:37:10.093Z,6.50
2024-01-01T17:39:43.258Z,6.60
2024-01-01T17:42:18.319Z,6.60
2024-01-01T17:44:54.936Z,6.60
2024-01-01T17:47:30.487Z,6.60
2024-01-01T17:50:03.824Z,6.60
2024-01-01T17:52:38.985Z,6.60
2024-01-01T17:55:16.185Z,6.60
2024-01-01T17:57:49.140Z,6.60
2024-01-01T18:00:22.857Z,6.60
2024-01-01T18:02:56.302Z,6.60
2024-01-01T18:05:29.673Z,6.60
2024-01-01T18:08:02.634Z,6.60
2024-01-01T18:10:37.254Z,6.60
2024-01-01T18:13:09.951Z,6.60
2024-01-01T18:15:43.603Z,6.60
2024-01-01T18:18:16.489Z,6.60
2024-01-01T18:20:51.225Z,6.60
2024-01-01T18:23:24.983Z,6.50
2024-01-01T18:25:58.331Z,6.50
2024-01-01T18:28:31.147Z,6.50
2024-01-01T18:31:14.045Z,6.50
2024-01-01T18:33:50.378Z,6.50
2024-01-01T18:36:23.424Z,6.50
2024-01-01T18:38:57.719Z,6.40
2024-01-01T18:41:32.249Z,6.50
2024-01-01T18:44:05.887Z,6.50
2024-01-01T18:46:38.803Z,6.50
2024-01-01T18:49:12.954Z,6.50
2024-01-01T18:51:46.670Z,6.50
2024-01-01T18:54:21.537Z,6.50
2024-01-01T18:56:57.785Z,6.50
2024-01-01T18:59:30.953Z,6.50
2024-01-01T19:02:05.609Z,6.50
2024-01-01T19:04:38.469Z,6.60
2024-01-01T19:07:11.895Z,6.50
2024-01-01T19:09:45.085Z,6.50
2024-01-01T19:12:20.534Z,6.50
2024-01-01T19:14:57.350Z,6.50
2024-01-01T19:17:32.569Z,6.50
2024-01-01T19:20:07.276Z,6.50
2024-01-01T19:22:41.290Z,6.50
2024-01-01T19:25:14.231Z,6.50
2024-01-01T19:27:47.350Z,6.50
2024-01-01T19:30:20.292Z,6.50
2024-01-01T19:32:53.619Z,6.50
2024-01-01T19:35:27.924Z,6.50
2024-01-01T19:38:01.068Z,6.50
2024-01-01T19:40:34.427Z,6.50
2024-01-01T19:43:07.707Z,6.50
2024-01-01T19:45:40.476Z,6.50
2024-01-01T19:48:15.665Z,6.50
2024-01-01T19:50:48.887Z,6.40
2024-01-01T19:53:27.394Z,6.50
2024-01-01T19:56:01.906Z,6.50
2024-01-01T19:58:36.746Z,6.40
2024-01-01T20:01:11.291Z,6.40
2024-01-01T20:03:44.479Z,6.50
2024-01-01T20:06:18.502Z,6.50
2024-01-01T20:08:51.842Z,6.50
2024-01-01T20:11:26.027Z,6.50
2024-01-01T20:13:59.095Z,6.50
2024-01-01T20:16:32.704Z,6.50
2024-01-01T20:19:06.871Z,6.50
2024-01-01T20:21:42.442Z,6.60
2024-01-01T20:24:19.150Z,6.60
2024-01-01T20:26:52.479Z,6.60
2024-01-01T20:29:25.689Z,6.60
2024-01-01T20:31:59.148Z,6.60
2024-01-01T20:34:32.312Z,6.60
2024-01-01T20:37:05.498Z,6.60
2024-01-01T20:39:39.359Z,6.60
2024-01-01T20:42:12.789Z,6.70
2024-01-01T20:44:46.875Z,6.70
2024-01-01T20:47:20.204Z,6.60
2024-01-01T20:49:53.961Z,6.60
2024-01-01T20:52:28.598Z,6.60
2024-01-01T20:55:52.909Z,6.60
2024-01-01T20:59:31.895Z,6.60
2024-01-01T21:02:35.909Z,6.60
2024-01-01T21:05:25.954Z,6.50
2024-01-01T21:08:29.379Z,6.50
2024-01-01T21:14:01.298Z,6.40
2024-01-01T21:16:39.780Z,6.40
2024-01-01T21:19:39.336Z,6.40
2024-01-01T21:22:32.128Z,6.40
2024-01-01T21:25:21.232Z,6.40
2024-01-01T21:28:08.974Z,6.30
2024-01-01T21:30:59.019Z,6.30
2024-01-01T21:33:41.808Z,6.30
2024-01-01T21:36:25.299Z,6.40
2024-01-01T21:39:30.710Z,6.30
2024-01-01T21:42:15.741Z,6.30
2024-01-01T21:44:58.159Z,6.30
2024-01-01T21:50:35.196Z,6.40
2024-01-01T21:53:07.870Z,6.40
2024-01-01T21:55:45.651Z,6.40
2024-01-01T21:58:19.874Z,6.40
2024-01-01T22:00:52.658Z,6.50
2024-01-01T22:03:25.232Z,6.50
2024-01-01T22:05:58.427Z,6.50
2024-01-01T22:08:31.137Z,6.50
2024-01-01T22:11:03.913Z,6.60
2024-01-01T22:13:36.405Z,6.60
2024-01-01T22:16:09.091Z,6.60
2024-01-01T22:18:42.435Z,6.60
2024-01-01T22:21:21.613Z,6.60
2024-01-01T22:23:55.779Z,6.60
2024-01-01T22:26:28.388Z,6.60
2024-01-01T22:29:01.558Z,6.60
2024-01-01T22:31:40.658Z,6.60
2024-01-01T22:34:13.231Z,6.70
2024-01-01T22:36:45.788Z,6.70
2024-01-01T22:39:20.296Z,6.70
2024-01-01T22:41:54.094Z,6.70
2024-01-01T22:44:29.465Z,6.70
2024-01-01T22:47:02.176Z,6.70
2024-01-01T22:49:35.320Z,6.70
2024-01-01T22:52:08.862Z,6.70
2024-01-01T22:54:41.203Z,6.70
2024-01-01T22:57:13.510Z,6.70
2024-01-01T22:59:46.433Z,6.70
2024-01-01T23:02:20.132Z,6.70
2024-01-01T23:04:53.372Z,6.70
2024-01-01T23:07:26.508Z,6.70
2024-01-01T23:09:59.186Z,6.70
2024-01-01T23:12:32.179Z,6.70
2024-01-01T23:15:05.771Z,6.70
2024-01-01T23:17:38.726Z,6.70
2024-01-01T23:20:12.292Z,6.70
2024-01-01T23:22:45.173Z,6.70
2024-01-01T23:25:17.733Z,6.70
2024-01-01T23:27:51.243Z,6.70
2024-01-01T23:30:25.712Z,6.70
2024-01-01T23:32:58.768Z,6.70
2024-01-01T23:35:31.474Z,6.70
2024-01-01T23:38:04.725Z,6.70
2024-01-01T23:40:37.964Z,6.80
2024-01-01T23:43:10.702Z,6.80
2024-01-01T23:45:43.786Z,6.80
2024-01-01T23:48:16.395Z,6.80
2024-01-01T23:50:49.030Z,6.80
2024-01-01T23:53:22.265Z,6.80
2024-01-01T23:55:55.538Z,6.80
2024-01-01T23:58:28.297Z,6.80
